createdAt,value
2022-11-12T00:04:32.904Z,6.01
2022-11-12T00:10:12.976Z,6.07
2022-11-12T00:15:53.030Z,6.04
2022-11-12T00:21:32.987Z,5.88
2022-11-12T00:27:13.234Z,5.73
2022-11-12T00:32:53.093Z,5.68
2022-11-12T00:38:33.574Z,5.68
2022-11-12T00:44:13.528Z,5.65
2022-11-12T00:49:53.484Z,5.62
2022-11-12T00:55:33.611Z,5.64
2022-11-12T01:01:16.020Z,5.60
2022-11-12T01:06:55.874Z,5.60
2022-11-12T01:12:35.801Z,5.70
2022-11-12T01:18:15.756Z,5.71
2022-11-12T01:23:58.179Z,5.73
2022-11-12T01:29:37.823Z,5.73
2022-11-12T01:35:17.707Z,5.66
2022-11-12T01:40:57.605Z,5.69
2022-11-12T01:47:02.547Z,5.68
2022-11-12T01:52:57.205Z,5.66
2022-11-12T01:58:39.555Z,5.57
2022-11-12T02:04:20.881Z,5.63
2022-11-12T02:10:03.363Z,5.67
2022-11-12T02:15:43.492Z,5.78
2022-11-12T02:21:24.907Z,5.73
2022-11-12T02:27:06.339Z,5.71
2022-11-12T02:32:46.404Z,5.67
2022-11-12T02:38:26.890Z,5.62
2022-11-12T02:44:07.200Z,5.76
2022-11-12T02:49:46.974Z,5.73
2022-11-12T02:55:26.946Z,5.77
2022-11-12T03:01:07.097Z,5.80
2022-11-12T03:06:47.068Z,5.81
2022-11-12T03:12:27.078Z,5.72
2022-11-12T03:18:07.092Z,5.92
2022-11-12T03:23:47.061Z,5.83
2022-11-12T03:29:27.142Z,5.82
2022-11-12T03:35:07.371Z,5.88
2022-11-12T03:40:47.002Z,5.95
2022-11-12T03:46:27.090Z,6.00
2022-11-12T03:52:06.996Z,6.00
2022-11-12T03:57:51.719Z,6.13
2022-11-12T04:03:31.736Z,6.01
2022-11-12T04:09:11.670Z,5.96
2022-11-12T04:14:51.652Z,5.94
2022-11-12T04:21:06.355Z,5.90
2022-11-12T04:26:46.578Z,5.89
2022-11-12T04:32:26.566Z,5.96
2022-11-12T04:38:06.310Z,6.01
2022-11-12T04:44:04.660Z,6.01
2022-11-12T04:49:44.697Z,5.93
2022-11-12T04:55:24.909Z,6.01
2022-11-12T05:01:05.412Z,6.12
2022-11-12T05:06:54.611Z,6.17
2022-11-12T05:12:34.633Z,6.27
2022-11-12T05:18:14.442Z,6.32
2022-11-12T05:23:54.184Z,6.39
2022-11-12T05:29:34.164Z,6.31
2022-11-12T05:35:14.481Z,6.38
2022-11-12T05:40:54.460Z,6.41
2022-11-12T05:46:34.482Z,6.48
2022-11-12T05:52:14.534Z,6.50
2022-11-12T05:57:54.562Z,6.62
2022-11-12T06:03:34.534Z,6.81
2022-11-12T06:09:14.446Z,6.92
2022-11-12T06:14:54.291Z,6.90
2022-11-12T06:20:35.251Z,6.94
2022-11-12T06:26:15.326Z,7.09
2022-11-12T06:31:55.244Z,7.13
2022-11-12T06:37:35.167Z,7.13
2022-11-12T06:43:15.123Z,7.30
2022-11-12T06:48:54.988Z,7.82
2022-11-12T06:54:34.941Z,8.63
2022-11-12T07:00:15.449Z,9.07
2022-11-12T07:05:55.738Z,8.57
2022-11-12T07:11:35.907Z,8.42
2022-11-12T07:17:15.822Z,8.35
2022-11-12T07:22:55.677Z,8.29
2022-11-12T07:28:35.615Z,8.31
2022-11-12T07:34:15.586Z,8.29
2022-11-12T07:39:55.599Z,8.67
2022-11-12T07:45:35.429Z,8.94
2022-11-12T07:51:17.249Z,9.23
2022-11-12T07:56:57.004Z,8.78
2022-11-12T08:02:37.172Z,9.04
2022-11-12T08:08:17.277Z,9.35
2022-11-12T08:13:57.477Z,9.42
2022-11-12T08:19:37.334Z,9.42
2022-11-12T08:25:19.158Z,9.56
2022-11-12T08:31:07.585Z,9.84
2022-11-12T08:36:47.632Z,9.55
2022-11-12T08:42:27.583Z,9.62
2022-11-12T08:48:14.515Z,9.98
2022-11-12T08:53:54.562Z,10.27
2022-11-12T08:59:34.406Z,10.04
2022-11-12T09:05:14.337Z,9.85
2022-11-12T09:10:54.455Z,9.84
2022-11-12T09:16:34.457Z,9.77
2022-11-12T09:22:14.396Z,10.04
2022-11-12T09:27:55.241Z,10.28
2022-11-12T09:33:35.293Z,10.21
2022-11-12T09:39:15.251Z,10.75
2022-11-12T09:45:22.596Z,10.64
2022-11-12T09:51:12.322Z,10.67
2022-11-12T09:56:53.726Z,10.59
2022-11-12T10:02:39.788Z,10.52
2022-11-12T10:08:35.419Z,10.61
2022-11-12T10:14:55.068Z,10.63
2022-11-12T10:20:53.488Z,10.93
2022-11-12T10:26:34.880Z,10.87
2022-11-12T10:32:16.286Z,10.79
2022-11-12T10:38:06.694Z,10.71
2022-11-12T10:43:57.016Z,10.78
2022-11-12T10:49:36.603Z,10.83
2022-11-12T10:55:16.619Z,10.69
2022-11-12T11:01:17.092Z,10.72
2022-11-12T11:07:03.756Z,10.44
2022-11-12T11:12:43.959Z,10.44
2022-11-12T11:18:24.397Z,10.39
2022-11-12T11:24:30.612Z,10.17
2022-11-12T11:30:15.585Z,10.16
2022-11-12T11:36:19.142Z,10.06
2022-11-12T11:42:17.622Z,9.92
2022-11-12T11:48:08.044Z,9.79
2022-11-12T11:54:10.499Z,9.76
2022-11-12T11:59:59.294Z,9.62
2022-11-12T12:06:00.314Z,9.50
2022-11-12T12:11:59.734Z,9.63
2022-11-12T12:17:51.518Z,9.57
2022-11-12T12:23:50.900Z,9.44
2022-11-12T12:29:47.811Z,9.55
2022-11-12T12:35:44.735Z,9.50
2022-11-12T12:41:30.158Z,9.38
2022-11-12T12:47:13.524Z,9.21
2022-11-12T12:53:02.203Z,9.21
2022-11-12T12:58:49.181Z,9.06
2022-11-12T13:04:52.778Z,9.15
2022-11-12T13:10:41.731Z,9.08
2022-11-12T13:16:52.243Z,9.10
2022-11-12T13:22:38.387Z,8.99
2022-11-12T13:28:18.467Z,9.05
2022-11-12T13:34:13.911Z,8.92
2022-11-12T13:39:54.004Z,8.96
2022-11-12T13:45:41.719Z,9.06
2022-11-12T13:51:28.887Z,8.88
2022-11-12T13:57:20.575Z,9.02
2022-11-12T14:03:04.767Z,9.04
2022-11-12T14:09:12.399Z,8.95
2022-11-12T14:14:58.397Z,8.99
2022-11-12T14:20:42.156Z,8.99
2022-11-12T14:26:38.310Z,9.08
2022-11-12T14:32:18.933Z,9.05
2022-11-12T14:38:23.503Z,8.97
2022-11-12T14:44:13.270Z,9.02
2022-11-12T14:49:54.056Z,9.00
2022-11-12T14:55:37.208Z,8.98
2022-11-12T15:07:48.361Z,8.92
2022-11-12T15:13:28.364Z,9.00
2022-11-12T15:19:16.445Z,9.00
2022-11-12T15:24:56.900Z,9.00
2022-11-12T15:30:36.530Z,9.03
2022-11-12T15:36:19.614Z,9.01
2022-11-12T15:42:07.360Z,8.96
2022-11-12T15:47:47.816Z,8.99
2022-11-12T15:53:28.945Z,8.98
2022-11-12T15:59:12.408Z,8.83
2022-11-12T16:04:52.417Z,8.69
2022-11-12T16:10:32.637Z,8.75
2022-11-12T16:16:12.735Z,8.74
2022-11-12T16:21:52.909Z,8.83
2022-11-12T16:27:33.233Z,8.75
2022-11-12T16:33:14.367Z,8.67
2022-11-12T16:38:54.241Z,8.70
2022-11-12T16:44:33.772Z,8.69
2022-11-12T16:50:16.977Z,8.68
2022-11-12T16:55:57.792Z,8.74
2022-11-12T17:01:37.845Z,8.73
2022-11-12T17:07:17.917Z,8.80
2022-11-12T17:12:57.877Z,8.81
2022-11-12T17:18:38.786Z,8.85
2022-11-12T17:24:18.698Z,8.86
2022-11-12T17:29:58.745Z,8.99
2022-11-12T17:35:38.741Z,8.96
2022-11-12T17:41:18.126Z,9.03
2022-11-12T17:46:58.426Z,9.06
2022-11-12T17:52:38.667Z,9.12
2022-11-12T17:58:18.569Z,9.21
2022-11-12T18:03:59.591Z,9.18
2022-11-12T18:09:39.423Z,9.27
2022-11-12T18:15:19.662Z,9.18
2022-11-12T18:20:59.845Z,9.25
2022-11-12T18:26:39.740Z,9.29
2022-11-12T18:32:19.707Z,9.21
2022-11-12T18:38:00.385Z,9.18
2022-11-12T18:43:40.910Z,9.11
2022-11-12T18:49:20.790Z,8.97
2022-11-12T18:55:00.799Z,8.89
2022-11-12T19:00:40.774Z,8.83
2022-11-12T19:06:21.099Z,8.73
2022-11-12T19:12:01.131Z,8.56
2022-11-12T19:17:40.659Z,8.57
2022-11-12T19:23:21.680Z,8.55
2022-11-12T19:29:02.315Z,8.50
2022-11-12T19:34:42.343Z,8.54
2022-11-12T19:40:22.328Z,8.58
2022-11-12T19:46:02.906Z,8.59
2022-11-12T19:51:43.089Z,8.63
2022-11-12T19:57:23.475Z,8.64
2022-11-12T20:03:03.525Z,8.62
2022-11-12T20:08:43.480Z,8.69
2022-11-12T20:14:23.491Z,8.74
2022-11-12T20:20:04.934Z,8.89
2022-11-12T20:25:44.774Z,8.83
2022-11-12T20:31:24.637Z,8.99
2022-11-12T20:37:04.727Z,8.99
2022-11-12T20:42:46.024Z,9.05
2022-11-12T20:48:26.482Z,9.17
2022-11-12T20:54:06.672Z,9.26
2022-11-12T20:59:48.269Z,9.28
2022-11-12T21:05:31.269Z,9.36
2022-11-12T21:11:13.989Z,9.36
2022-11-12T21:16:53.495Z,9.41
2022-11-12T21:22:33.981Z,9.39
2022-11-12T21:28:14.301Z,9.44
2022-11-12T21:34:00.648Z,9.49
2022-11-12T21:39:40.643Z,9.57
2022-11-12T21:45:20.727Z,9.60
2022-11-12T21:51:05.399Z,9.66
2022-11-12T21:56:45.463Z,9.64
2022-11-12T22:02:25.485Z,9.64
2022-11-12T22:08:05.730Z,9.79
2022-11-12T22:13:45.939Z,9.85
2022-11-12T22:19:25.648Z,9.75
2022-11-12T22:25:05.848Z,9.77
2022-11-12T22:30:45.830Z,9.77
2022-11-12T22:36:28.447Z,9.84
2022-11-12T22:42:08.124Z,9.89
2022-11-12T22:47:47.925Z,9.91
2022-11-12T22:53:29.154Z,9.90
2022-11-12T22:59:11.083Z,9.90
2022-11-12T23:04:50.940Z,9.95
2022-11-12T23:10:32.085Z,9.87
2022-11-12T23:16:15.188Z,9.78
2022-11-12T23:21:55.064Z,9.81
2022-11-12T23:27:35.135Z,9.78
2022-11-12T23:33:15.397Z,9.78
2022-11-12T23:38:56.238Z,9.63
2022-11-12T23:44:36.068Z,9.52
2022-11-12T23:50:16.297Z,9.36
2022-11-12T23:55:56.293Z,9.23
